createdAt,value
2023-05-01T00:00:37.757Z,6.88
2023-05-01T00:03:04.771Z,5.93
2023-05-01T00:05:31.725Z,9.68
2023-05-01T00:07:58.474Z,6.40
2023-05-01T00:10:25.348Z,5.53
2023-05-01T00:12:52.062Z,7.25
2023-05-01T00:15:18.882Z,6.93
2023-05-01T00:17:45.830Z,5.95
2023-05-01T00:20:12.809Z,5.38
2023-05-01T00:22:39.875Z,8.68
2023-05-01T00:25:07.209Z,6.82
2023-05-01T00:27:33.923Z,4.03
2023-05-01T00:30:00.766Z,5.93
2023-05-01T00:32:27.977Z,9.50
2023-05-01T00:34:56.768Z,5.28
2023-05-01T00:37:24.283Z,8.10
2023-05-01T00:39:51.116Z,9.68
2023-05-01T00:42:17.848Z,3.47
2023-05-01T00:44:44.515Z,6.07
2023-05-01T00:47:11.961Z,6.30
2023-05-01T00:49:38.912Z,9.18
2023-05-01T00:52:05.585Z,7.93
2023-05-01T00:54:32.298Z,5.18
2023-05-01T00:56:59.050Z,8.00
2023-05-01T00:59:25.741Z,4.97
2023-05-01T01:01:54.929Z,5.25
2023-05-01T01:04:23.037Z,5.10
2023-05-01T01:06:57.295Z,5.05
2023-05-01T01:09:38.773Z,7.65
2023-05-01T01:12:31.659Z,3.78
2023-05-01T01:15:22.129Z,4.38
2023-05-01T01:18:09.866Z,3.78
2023-05-01T01:20:49.055Z,5.32
2023-05-01T01:23:25.336Z,10.30
2023-05-01T01:26:19.403Z,6.00
2023-05-01T01:29:08.860Z,7.55
2023-05-01T01:32:00.664Z,11.02
2023-05-01T01:34:35.895Z,4.45
2023-05-01T01:37:11.288Z,4.95
2023-05-01T01:39:52.340Z,6.38
2023-05-01T01:42:29.130Z,4.50
2023-05-01T01:45:00.200Z,5.57
2023-05-01T01:47:31.886Z,5.45
2023-05-01T01:50:02.646Z,4.38
2023-05-01T01:52:30.328Z,2.50
2023-05-01T01:55:08.618Z,7.25
2023-05-01T01:57:37.962Z,3.65
2023-05-01T02:00:09.046Z,4.05
2023-05-01T02:02:39.583Z,4.03
2023-05-01T02:05:09.026Z,3.57
2023-05-01T02:07:39.566Z,3.67
2023-05-01T02:10:09.014Z,5.33
2023-05-01T02:12:36.822Z,5.40
2023-05-01T02:15:05.009Z,3.60
2023-05-01T02:17:33.140Z,4.68
2023-05-01T02:20:00.539Z,5.25
2023-05-01T02:22:31.823Z,4.43
2023-05-01T02:25:01.043Z,2.90
2023-05-01T02:27:35.782Z,6.05
2023-05-01T02:30:02.903Z,3.83
2023-05-01T02:32:31.899Z,6.22
2023-05-01T02:34:59.913Z,6.30
2023-05-01T02:37:28.088Z,3.55
2023-05-01T02:39:55.285Z,5.68
2023-05-01T02:42:24.610Z,4.53
2023-05-01T02:44:56.970Z,3.20
2023-05-01T02:47:25.095Z,3.65
2023-05-01T02:49:53.000Z,5.05
2023-05-01T02:52:21.741Z,7.25
2023-05-01T02:54:49.492Z,4.88
2023-05-01T02:57:18.021Z,6.90
2023-05-01T02:59:44.781Z,3.25
2023-05-01T03:02:11.575Z,4.63
2023-05-01T03:04:38.375Z,6.43
2023-05-01T03:07:05.445Z,3.83
2023-05-01T03:09:32.371Z,2.50
2023-05-01T03:11:59.053Z,5.22
2023-05-01T03:14:27.939Z,7.75
2023-05-01T03:16:55.448Z,3.08
2023-05-01T03:19:22.172Z,5.05
2023-05-01T03:21:48.922Z,5.35
2023-05-01T03:24:15.625Z,3.40
2023-05-01T03:26:42.465Z,4.55
2023-05-01T03:29:09.870Z,5.18
2023-05-01T03:31:36.626Z,4.53
2023-05-01T03:34:03.309Z,3.97
2023-05-01T03:36:29.984Z,5.38
2023-05-01T03:38:56.905Z,4.85
2023-05-01T03:41:23.536Z,5.63
2023-05-01T03:43:50.540Z,4.95
2023-05-01T03:46:17.316Z,3.95
2023-05-01T03:48:44.327Z,5.43
2023-05-01T03:51:11.063Z,3.78
2023-05-01T03:53:37.810Z,5.90
2023-05-01T03:56:04.801Z,4.38
2023-05-01T03:58:31.606Z,5.22
2023-05-01T04:01:00.825Z,4.15
2023-05-01T04:03:28.559Z,3.67
2023-05-01T04:05:55.693Z,5.82
2023-05-01T04:08:22.417Z,3.50
2023-05-01T04:10:49.286Z,6.28
2023-05-01T04:13:16.562Z,5.40
2023-05-01T04:15:46.887Z,5.43
2023-05-01T04:18:14.343Z,5.43
2023-05-01T04:20:41.119Z,3.83
2023-05-01T04:23:09.513Z,6.88
2023-05-01T04:25:37.053Z,4.88
2023-05-01T04:28:03.993Z,4.35
2023-05-01T04:30:31.654Z,4.97
2023-05-01T04:32:58.657Z,5.60
2023-05-01T04:35:25.709Z,5.05
2023-05-01T04:37:52.628Z,7.38
2023-05-01T04:40:19.338Z,7.47
2023-05-01T04:42:46.464Z,3.75
2023-05-01T04:45:13.273Z,4.57
2023-05-01T04:47:39.977Z,4.97
2023-05-01T04:50:07.210Z,9.63
2023-05-01T04:52:34.095Z,5.97
2023-05-01T04:55:00.827Z,4.47
2023-05-01T04:57:27.520Z,6.40
2023-05-01T04:59:54.333Z,5.40
2023-05-01T05:02:21.390Z,6.68
2023-05-01T05:04:48.084Z,5.63
2023-05-01T05:07:14.796Z,8.32
2023-05-01T05:09:41.508Z,5.78
2023-05-01T05:12:08.176Z,6.82
2023-05-01T05:14:34.841Z,5.78
2023-05-01T05:17:01.527Z,6.28
2023-05-01T05:19:28.240Z,7.53
2023-05-01T05:21:55.156Z,6.75
2023-05-01T05:24:22.055Z,6.55
2023-05-01T05:26:49.103Z,7.45
2023-05-01T05:29:16.545Z,7.40
2023-05-01T05:31:43.605Z,8.95
2023-05-01T05:34:10.320Z,5.70
2023-05-01T05:36:37.826Z,8.60
2023-05-01T05:39:04.914Z,7.60
2023-05-01T05:41:31.634Z,7.40
2023-05-01T05:43:58.386Z,7.65
2023-05-01T05:46:25.134Z,7.82
2023-05-01T05:48:52.122Z,6.05
2023-05-01T05:51:19.454Z,6.80
2023-05-01T05:53:46.337Z,7.72
2023-05-01T05:56:12.984Z,6.90
2023-05-01T05:58:39.708Z,8.73
2023-05-01T06:01:07.088Z,9.32
2023-05-01T06:03:33.983Z,8.10
2023-05-01T06:06:01.238Z,10.55
2023-05-01T06:08:28.289Z,9.02
2023-05-01T06:10:54.991Z,8.88
2023-05-01T06:13:21.934Z,10.70
2023-05-01T06:15:49.023Z,8.90
2023-05-01T06:18:16.068Z,9.50
2023-05-01T06:20:42.936Z,9.32
2023-05-01T06:23:09.956Z,8.13
2023-05-01T06:25:37.668Z,8.45
2023-05-01T06:28:04.472Z,11.07
2023-05-01T06:30:31.173Z,10.93
2023-05-01T06:32:58.069Z,8.43
2023-05-01T06:35:25.358Z,13.18
2023-05-01T06:37:52.129Z,10.25
2023-05-01T06:40:18.798Z,12.73
2023-05-01T06:42:45.506Z,7.68
2023-05-01T06:45:12.272Z,8.88
2023-05-01T06:47:39.073Z,7.38
2023-05-01T06:50:07.450Z,8.57
2023-05-01T06:52:34.716Z,7.63
2023-05-01T06:55:01.657Z,16.08
2023-05-01T06:57:28.328Z,9.70
2023-05-01T06:59:55.376Z,10.68
2023-05-01T07:02:22.531Z,8.48
2023-05-01T07:04:49.473Z,8.07
2023-05-01T07:07:16.372Z,10.55
2023-05-01T07:09:43.235Z,7.97
2023-05-01T07:12:10.023Z,10.13
2023-05-01T07:14:36.810Z,9.73
2023-05-01T07:17:04.129Z,7.95
2023-05-01T07:19:30.800Z,8.27
2023-05-01T07:21:57.546Z,10.43
2023-05-01T07:24:24.693Z,7.45
2023-05-01T07:26:51.906Z,6.82
2023-05-01T07:29:18.845Z,10.82
2023-05-01T07:31:46.874Z,12.32
2023-05-01T07:34:13.806Z,8.07
2023-05-01T07:36:41.557Z,7.78
2023-05-01T07:39:08.496Z,9.57
2023-05-01T07:41:35.249Z,8.05
2023-05-01T07:44:02.319Z,7.95
2023-05-01T07:46:29.704Z,8.50
2023-05-01T07:48:57.004Z,11.18
2023-05-01T07:51:24.056Z,5.72
2023-05-01T07:53:50.914Z,8.77
2023-05-01T07:56:17.922Z,10.50
2023-05-01T07:58:44.925Z,9.82
2023-05-01T08:01:11.674Z,8.48
2023-05-01T08:03:38.924Z,7.97
2023-05-01T08:06:06.763Z,9.50
2023-05-01T08:08:33.731Z,8.52
2023-05-01T08:11:00.904Z,11.35
2023-05-01T08:13:27.664Z,6.32
2023-05-01T08:15:54.474Z,6.75
2023-05-01T08:18:21.667Z,7.28
2023-05-01T08:20:49.532Z,8.05
2023-05-01T08:23:17.299Z,5.03
2023-05-01T08:25:46.915Z,8.27
2023-05-01T08:28:14.934Z,7.85
2023-05-01T08:30:41.842Z,9.73
2023-05-01T08:33:08.572Z,4.55
2023-05-01T08:35:35.259Z,4.72
2023-05-01T08:38:02.667Z,6.07
2023-05-01T08:40:33.300Z,7.00
2023-05-01T08:43:02.571Z,4.57
2023-05-01T08:45:35.993Z,3.88
2023-05-01T08:48:07.412Z,9.00
2023-05-01T08:53:04.226Z,5.72
2023-05-01T08:55:34.831Z,8.75
2023-05-01T08:58:03.346Z,7.10
2023-05-01T09:00:31.652Z,4.88
2023-05-01T09:03:02.228Z,11.05
2023-05-01T09:05:32.690Z,6.30
2023-05-01T09:08:00.713Z,4.38
2023-05-01T09:10:27.789Z,7.30
2023-05-01T09:13:01.759Z,8.32
2023-05-01T09:15:30.114Z,6.53
2023-05-01T09:18:02.303Z,4.60
2023-05-01T09:20:31.717Z,2.95
2023-05-01T09:22:59.056Z,2.83
2023-05-01T09:25:25.873Z,4.03
2023-05-01T09:27:52.655Z,5.15
2023-05-01T09:30:39.096Z,6.82
2023-05-01T09:33:06.489Z,7.90
2023-05-01T09:35:47.990Z,5.95
2023-05-01T09:38:18.585Z,5.00
2023-05-01T09:40:46.282Z,5.47
2023-05-01T09:43:13.227Z,4.95
2023-05-01T09:45:42.317Z,7.93
2023-05-01T09:48:11.102Z,6.78
2023-05-01T09:50:39.380Z,5.95
2023-05-01T09:53:06.648Z,7.32
2023-05-01T09:55:33.928Z,7.75
2023-05-01T09:58:00.726Z,6.15
2023-05-01T10:00:27.831Z,6.43
2023-05-01T10:02:54.637Z,8.00
2023-05-01T10:05:21.513Z,4.00
2023-05-01T10:08:03.845Z,8.02
2023-05-01T10:10:30.904Z,6.80
2023-05-01T10:13:19.022Z,8.57
2023-05-01T10:15:50.156Z,8.32
2023-05-01T10:18:18.121Z,8.02
2023-05-01T10:20:44.894Z,9.73
2023-05-01T10:23:12.191Z,6.90
2023-05-01T10:25:41.033Z,6.03
2023-05-01T10:28:09.761Z,10.35
2023-05-01T10:30:38.129Z,8.60
2023-05-01T10:33:05.311Z,8.10
2023-05-01T10:35:38.197Z,9.02
2023-05-01T10:38:07.742Z,10.20
2023-05-01T10:40:43.279Z,7.80
2023-05-01T10:43:16.147Z,9.02
2023-05-01T10:45:47.856Z,11.27
2023-05-01T10:48:45.410Z,6.78
2023-05-01T10:51:17.240Z,7.35
2023-05-01T10:53:45.799Z,9.77
2023-05-01T10:56:25.318Z,8.60
2023-05-01T10:58:58.084Z,8.88
2023-05-01T11:01:38.258Z,7.68
2023-05-01T11:04:08.385Z,12.57
2023-05-01T11:06:37.814Z,5.80
2023-05-01T11:09:43.011Z,5.32
2023-05-01T11:12:11.691Z,7.30
2023-05-01T11:15:05.624Z,9.45
2023-05-01T11:17:41.609Z,8.05
2023-05-01T11:20:37.860Z,9.68
2023-05-01T11:23:04.528Z,7.18
2023-05-01T11:25:32.969Z,9.55
2023-05-01T11:28:03.814Z,5.68
2023-05-01T11:30:38.196Z,9.82
2023-05-01T11:33:06.262Z,12.05
2023-05-01T11:35:34.058Z,9.20
2023-05-01T11:38:00.730Z,10.73
2023-05-01T11:40:32.685Z,8.63
2023-05-01T11:43:07.179Z,7.05
2023-05-01T11:45:36.051Z,7.97
2023-05-01T11:48:04.898Z,8.65
2023-05-01T11:50:36.840Z,7.10
2023-05-01T11:53:15.782Z,9.65
2023-05-01T11:55:42.943Z,9.45
2023-05-01T11:58:09.735Z,8.57
2023-05-01T12:00:38.575Z,7.18
2023-05-01T12:03:08.385Z,8.15
2023-05-01T12:05:37.349Z,7.90
2023-05-01T12:08:11.629Z,11.02
2023-05-01T12:10:40.964Z,10.50
2023-05-01T12:13:13.586Z,10.70
2023-05-01T12:15:43.288Z,13.98
2023-05-01T12:18:11.370Z,7.63
2023-05-01T12:20:46.222Z,7.03
2023-05-01T12:23:16.282Z,10.45
2023-05-01T12:25:45.036Z,6.15
2023-05-01T12:28:18.282Z,12.90
2023-05-01T12:30:46.499Z,9.65
2023-05-01T12:33:14.548Z,12.45
2023-05-01T12:35:42.607Z,8.43
2023-05-01T12:38:36.137Z,8.57
2023-05-01T12:41:07.070Z,8.30
2023-05-01T12:43:35.938Z,7.10
2023-05-01T12:46:04.467Z,7.95
2023-05-01T12:48:33.054Z,6.68
2023-05-01T12:51:01.186Z,9.43
2023-05-01T12:53:29.151Z,11.70
2023-05-01T12:55:58.595Z,9.18
2023-05-01T12:58:36.281Z,9.30
2023-05-01T13:01:03.113Z,8.98
2023-05-01T13:03:36.268Z,7.40
2023-05-01T13:06:06.082Z,11.32
2023-05-01T13:08:34.298Z,8.73
2023-05-01T13:11:09.144Z,11.35
2023-05-01T13:13:37.961Z,8.60
2023-05-01T13:16:10.506Z,12.80
2023-05-01T13:18:50.456Z,13.35
2023-05-01T13:21:23.034Z,8.38
2023-05-01T13:23:57.993Z,9.75
2023-05-01T13:26:36.620Z,12.73
2023-05-01T13:29:05.890Z,11.18
2023-05-01T13:31:32.923Z,11.02
2023-05-01T13:34:01.076Z,10.63
2023-05-01T13:36:34.940Z,8.65
2023-05-01T13:39:02.539Z,9.68
2023-05-01T13:41:30.843Z,12.43
2023-05-01T13:43:58.104Z,12.38
2023-05-01T13:46:28.018Z,9.70
2023-05-01T13:48:55.316Z,11.82
2023-05-01T13:51:27.375Z,10.55
2023-05-01T13:53:56.291Z,12.10
2023-05-01T13:56:23.522Z,11.30
2023-05-01T13:58:50.844Z,10.70
2023-05-01T14:01:23.649Z,11.20
2023-05-01T14:03:51.077Z,9.55
2023-05-01T14:06:20.636Z,12.68
2023-05-01T14:08:49.427Z,13.52
2023-05-01T14:11:16.543Z,11.48
2023-05-01T14:13:46.337Z,12.43
2023-05-01T14:16:22.578Z,12.10
2023-05-01T14:18:49.686Z,12.80
2023-05-01T14:21:18.639Z,14.52
2023-05-01T14:23:45.644Z,12.90
2023-05-01T14:26:17.951Z,12.80
2023-05-01T14:28:46.973Z,14.15
2023-05-01T14:31:28.603Z,12.68
2023-05-01T14:36:28.644Z,14.68
2023-05-01T14:39:03.830Z,16.40
2023-05-01T14:41:31.504Z,13.45
2023-05-01T14:43:58.434Z,14.60
2023-05-01T14:46:32.026Z,15.73
2023-05-01T14:49:00.178Z,12.63
2023-05-01T14:51:27.652Z,11.43
2023-05-01T14:53:54.645Z,14.13
2023-05-01T14:56:21.653Z,18.23
2023-05-01T14:58:49.994Z,15.88
2023-05-01T15:01:18.492Z,19.35
2023-05-01T15:03:45.838Z,24.45
2023-05-01T15:06:13.148Z,19.42
2023-05-01T15:08:40.244Z,21.17
2023-05-01T15:11:07.624Z,15.60
2023-05-01T15:13:34.440Z,17.65
2023-05-01T15:16:01.398Z,17.10
2023-05-01T15:18:28.142Z,16.55
2023-05-01T15:20:55.688Z,15.85
2023-05-01T15:23:22.750Z,18.80
2023-05-01T15:25:50.903Z,17.17
2023-05-01T15:28:17.968Z,24.00
2023-05-01T15:30:46.462Z,16.45
2023-05-01T15:33:16.239Z,16.20
2023-05-01T15:35:46.445Z,21.85
2023-05-01T15:38:13.302Z,19.80
2023-05-01T15:40:42.719Z,19.33
2023-05-01T15:43:09.579Z,21.35
2023-05-01T15:45:36.439Z,23.02
2023-05-01T15:48:03.583Z,19.73
2023-05-01T15:50:30.539Z,22.58
2023-05-01T15:52:57.369Z,20.08
2023-05-01T15:55:24.152Z,18.00
2023-05-01T15:57:51.078Z,17.38
2023-05-01T16:00:18.727Z,18.60
2023-05-01T16:02:45.795Z,24.13
2023-05-01T16:05:16.786Z,15.05
2023-05-01T16:07:45.224Z,19.23
2023-05-01T16:10:12.646Z,17.13
2023-05-01T16:12:39.487Z,17.63
2023-05-01T16:15:06.798Z,17.65
2023-05-01T16:17:42.771Z,15.27
2023-05-01T16:20:12.096Z,18.63
2023-05-01T16:22:43.543Z,18.35
2023-05-01T16:27:44.568Z,13.80
2023-05-01T16:30:14.526Z,16.95
2023-05-01T16:32:42.205Z,13.57
2023-05-01T16:35:19.972Z,11.88
2023-05-01T16:37:47.044Z,12.75
2023-05-01T16:40:18.309Z,13.48
2023-05-01T16:42:52.279Z,14.23
2023-05-01T16:45:19.923Z,13.35
2023-05-01T16:47:47.457Z,11.50
2023-05-01T16:50:14.735Z,12.25
2023-05-01T16:52:41.509Z,13.77
2023-05-01T16:55:09.287Z,13.70
2023-05-01T16:57:36.102Z,16.38
2023-05-01T17:00:04.571Z,9.63
2023-05-01T17:02:31.464Z,10.05
2023-05-01T17:04:58.239Z,12.88
2023-05-01T17:07:25.261Z,14.30
2023-05-01T17:09:52.142Z,9.90
2023-05-01T17:12:19.136Z,10.02
2023-05-01T17:14:46.312Z,9.52
2023-05-01T17:17:13.278Z,11.43
2023-05-01T17:19:40.431Z,6.78
2023-05-01T17:22:07.602Z,10.93
2023-05-01T17:24:36.385Z,6.00
2023-05-01T17:27:03.823Z,4.03
2023-05-01T17:29:30.708Z,4.50
2023-05-01T17:31:57.645Z,5.68
2023-05-01T17:34:24.482Z,5.25
2023-05-01T17:36:51.155Z,6.05
2023-05-01T17:39:19.025Z,11.63
2023-05-01T17:41:45.826Z,9.18
2023-05-01T17:44:12.696Z,6.80
2023-05-01T17:46:39.709Z,9.35
2023-05-01T17:49:07.557Z,11.15
2023-05-01T17:51:34.469Z,10.68
2023-05-01T17:54:01.690Z,10.52
2023-05-01T17:56:28.563Z,15.52
2023-05-01T17:58:55.383Z,11.63
2023-05-01T18:01:22.369Z,8.60
2023-05-01T18:03:49.367Z,8.32
2023-05-01T18:06:16.867Z,10.55
2023-05-01T18:08:43.912Z,9.50
2023-05-01T18:11:11.193Z,9.30
2023-05-01T18:13:42.538Z,10.73
2023-05-01T18:16:09.792Z,10.32
2023-05-01T18:18:36.688Z,10.25
2023-05-01T18:21:03.645Z,9.02
2023-05-01T18:23:30.659Z,6.28
2023-05-01T18:25:59.330Z,6.50
2023-05-01T18:28:26.732Z,4.88
2023-05-01T18:30:53.580Z,5.03
2023-05-01T18:33:21.470Z,2.80
2023-05-01T18:35:48.234Z,2.22
2023-05-01T18:38:14.944Z,6.45
2023-05-01T18:40:41.639Z,6.38
2023-05-01T18:43:08.636Z,7.50
2023-05-01T18:45:35.352Z,8.32
2023-05-01T18:48:02.599Z,8.95
2023-05-01T18:50:29.440Z,7.75
2023-05-01T18:52:56.126Z,8.13
2023-05-01T18:55:22.852Z,5.72
2023-05-01T18:57:49.731Z,6.68
2023-05-01T19:00:17.827Z,8.00
2023-05-01T19:02:51.274Z,13.50
2023-05-01T19:05:18.779Z,15.43
2023-05-01T19:07:45.531Z,26.95
2023-05-01T19:10:12.311Z,20.90
2023-05-01T19:12:39.633Z,26.30
2023-05-01T19:15:06.772Z,38.55
2023-05-01T19:17:33.976Z,40.72
2023-05-01T19:20:01.047Z,39.30
2023-05-01T19:22:27.987Z,25.08
2023-05-01T19:24:55.082Z,19.35
2023-05-01T19:27:21.750Z,22.08
2023-05-01T19:29:48.518Z,23.80
2023-05-01T19:32:15.357Z,23.13
2023-05-01T19:34:42.099Z,24.35
2023-05-01T19:37:08.915Z,22.08
2023-05-01T19:39:35.597Z,25.75
2023-05-01T19:42:03.280Z,18.90
2023-05-01T19:44:29.998Z,19.48
2023-05-01T19:46:56.677Z,25.83
2023-05-01T19:49:25.023Z,15.93
2023-05-01T19:51:53.436Z,20.73
2023-05-01T19:54:22.263Z,20.63
2023-05-01T19:56:51.561Z,14.63
2023-05-01T19:59:18.813Z,13.82
2023-05-01T20:01:46.047Z,9.63
2023-05-01T20:04:12.953Z,14.13
2023-05-01T20:06:39.771Z,7.72
2023-05-01T20:09:07.202Z,6.13
2023-05-01T20:11:34.020Z,4.22
2023-05-01T20:14:02.353Z,3.25
2023-05-01T20:16:30.189Z,6.05
2023-05-01T20:18:56.865Z,4.72
2023-05-01T20:21:23.559Z,4.43
2023-05-01T20:23:51.245Z,4.38
2023-05-01T20:26:19.008Z,4.68
2023-05-01T20:28:45.984Z,7.72
2023-05-01T20:31:13.542Z,3.70
2023-05-01T20:33:40.494Z,2.63
2023-05-01T20:36:07.357Z,5.43
2023-05-01T20:38:41.198Z,4.22
2023-05-01T20:41:07.897Z,7.43
2023-05-01T20:43:34.685Z,4.15
2023-05-01T20:46:01.544Z,3.47
2023-05-01T20:48:28.267Z,3.88
2023-05-01T20:50:55.364Z,3.72
2023-05-01T20:53:22.082Z,4.22
2023-05-01T20:55:49.938Z,3.60
2023-05-01T20:58:16.834Z,4.40
2023-05-01T21:00:43.530Z,3.63
2023-05-01T21:03:10.491Z,1.75
2023-05-01T21:05:37.260Z,1.83
2023-05-01T21:08:03.997Z,3.40
2023-05-01T21:10:31.605Z,2.20
2023-05-01T21:12:58.627Z,0.60
2023-05-01T21:15:26.882Z,0.80
2023-05-01T21:17:53.741Z,1.42
2023-05-01T21:20:31.145Z,1.45
2023-05-01T21:22:58.820Z,1.23
2023-05-01T21:25:27.456Z,0.40
2023-05-01T21:27:54.415Z,0.45
2023-05-01T21:30:31.254Z,0.40
2023-05-01T21:32:58.468Z,2.15
2023-05-01T21:35:26.466Z,0.30
2023-05-01T21:37:53.218Z,0.30
2023-05-01T21:40:20.204Z,0.30
2023-05-01T21:42:46.998Z,0.40
2023-05-01T21:45:17.064Z,0.30
2023-05-01T21:47:46.311Z,0.55
2023-05-01T21:50:18.194Z,0.30
2023-05-01T21:52:46.839Z,1.27
2023-05-01T21:55:25.226Z,0.30
2023-05-01T21:57:53.142Z,0.30
2023-05-01T22:00:20.952Z,0.73
2023-05-01T22:02:49.827Z,1.48
2023-05-01T22:05:18.478Z,0.65
2023-05-01T22:07:47.115Z,0.40
2023-05-01T22:10:15.854Z,0.30
2023-05-01T22:12:43.666Z,0.35
2023-05-01T22:15:11.817Z,0.73
2023-05-01T22:17:39.606Z,0.60
2023-05-01T22:20:07.553Z,0.40
2023-05-01T22:22:35.270Z,0.40
2023-05-01T22:25:02.443Z,0.88
2023-05-01T22:27:29.779Z,2.45
2023-05-01T22:29:56.470Z,0.60
2023-05-01T22:32:23.340Z,0.45
2023-05-01T22:34:50.417Z,0.60
2023-05-01T22:37:18.882Z,0.77
2023-05-01T22:39:45.551Z,0.50
2023-05-01T22:42:12.312Z,0.38
2023-05-01T22:44:39.272Z,0.95
2023-05-01T22:47:07.142Z,0.50
2023-05-01T22:49:34.069Z,0.55
2023-05-01T22:52:00.833Z,0.52
2023-05-01T22:54:27.504Z,0.50
2023-05-01T22:56:54.309Z,0.25
2023-05-01T22:59:21.949Z,0.55
2023-05-01T23:01:48.744Z,0.50
2023-05-01T23:04:15.583Z,0.50
2023-05-01T23:06:43.362Z,1.00
2023-05-01T23:09:10.255Z,2.20
2023-05-01T23:11:39.733Z,1.02
2023-05-01T23:14:06.581Z,0.75
2023-05-01T23:16:41.385Z,1.45
2023-05-01T23:19:18.973Z,0.75
2023-05-01T23:21:46.099Z,0.30
2023-05-01T23:24:15.934Z,0.40
2023-05-01T23:26:42.803Z,0.52
2023-05-01T23:29:09.682Z,0.28
2023-05-01T23:31:36.506Z,0.40
2023-05-01T23:34:03.290Z,0.50
2023-05-01T23:36:30.745Z,0.50
2023-05-01T23:38:57.604Z,0.40
2023-05-01T23:41:25.033Z,0.50
2023-05-01T23:43:52.017Z,0.40
2023-05-01T23:46:19.058Z,0.50
2023-05-01T23:48:45.966Z,0.43
2023-05-01T23:51:12.745Z,0.77
2023-05-01T23:53:39.603Z,0.50
2023-05-01T23:56:06.514Z,2.05
2023-05-01T23:58:33.265Z,0.30
